sensor_id;sensor_type;location;lat;lon;timestamp;temperature;humidity
14006;DHT22;7078;51.542;7.314;2022-08-21T00:01:56;16.50;99.90
14006;DHT22;7078;51.542;7.314;2022-08-21T00:04:22;16.50;99.90
14006;DHT22;7078;51.542;7.314;2022-08-21T00:06:49;16.50;99.90
14006;DHT22;7078;51.542;7.314;2022-08-21T00:09:15;16.50;99.90
14006;DHT22;7078;51.542;7.314;2022-08-21T00:11:41;16.40;99.90
14006;DHT22;7078;51.542;7.314;2022-08-21T00:14:08;16.40;99.90
14006;DHT22;7078;51.542;7.314;2022-08-21T00:16:34;16.40;99.90
14006;DHT22;7078;51.542;7.314;2022-08-21T00:19:00;16.40;99.90
14006;DHT22;7078;51.542;7.314;2022-08-21T00:21:25;16.40;99.90
14006;DHT22;7078;51.542;7.314;2022-08-21T00:23:51;16.30;99.90
14006;DHT22;7078;51.542;7.314;2022-08-21T00:26:17;16.30;99.90
14006;DHT22;7078;51.542;7.314;2022-08-21T00:28:43;16.30;99.90
14006;DHT22;7078;51.542;7.314;2022-08-21T00:31:11;16.30;99.90
14006;DHT22;7078;51.542;7.314;2022-08-21T00:33:36;16.30;99.90
14006;DHT22;7078;51.542;7.314;2022-08-21T00:36:03;16.20;99.90
14006;DHT22;7078;51.542;7.314;2022-08-21T00:38:28;16.20;99.90
14006;DHT22;7078;51.542;7.314;2022-08-21T00:40:57;16.20;99.90
14006;DHT22;7078;51.542;7.314;2022-08-21T00:43:28;16.20;99.90
14006;DHT22;7078;51.542;7.314;2022-08-21T00:45:54;16.20;99.90
14006;DHT22;7078;51.542;7.314;2022-08-21T00:48:22;16.20;99.90
14006;DHT22;7078;51.542;7.314;2022-08-21T00:51:00;16.10;99.90
14006;DHT22;7078;51.542;7.314;2022-08-21T00:53:27;16.10;99.90
14006;DHT22;7078;51.542;7.314;2022-08-21T00:55:54;16.10;99.90
14006;DHT22;7078;51.542;7.314;2022-08-21T00:58:20;16.20;99.90
14006;DHT22;7078;51.542;7.314;2022-08-21T01:00:49;16.10;99.90
14006;DHT22;7078;51.542;7.314;2022-08-21T01:03:18;16.10;99.90
14006;DHT22;7078;51.542;7.314;2022-08-21T01:05:44;16.10;99.90
14006;DHT22;7078;51.542;7.314;2022-08-21T01:08:11;16.10;99.90
14006;DHT22;7078;51.542;7.314;2022-08-21T01:10:38;16.10;99.90
14006;DHT22;7078;51.542;7.314;2022-08-21T01:13:06;16.10;99.90
14006;DHT22;7078;51.542;7.314;2022-08-21T01:15:40;16.10;99.90
14006;DHT22;7078;51.542;7.314;2022-08-21T01:18:09;16.20;99.90
14006;DHT22;7078;51.542;7.314;2022-08-21T01:20:37;16.20;99.90
14006;DHT22;7078;51.542;7.314;2022-08-21T01:23:05;16.20;99.90
14006;DHT22;7078;51.542;7.314;2022-08-21T01:25:32;16.30;99.90
14006;DHT22;7078;51.542;7.314;2022-08-21T01:28:01;16.30;99.90
14006;DHT22;7078;51.542;7.314;2022-08-21T01:30:28;16.30;99.90
14006;DHT22;7078;51.542;7.314;2022-08-21T01:32:55;16.30;99.90
14006;DHT22;7078;51.542;7.314;2022-08-21T01:35:21;16.30;99.90
14006;DHT22;7078;51.542;7.314;2022-08-21T01:37:48;16.30;99.90
14006;DHT22;7078;51.542;7.314;2022-08-21T01:40:15;16.30;99.90
14006;DHT22;7078;51.542;7.314;2022-08-21T01:42:44;16.30;99.90
14006;DHT22;7078;51.542;7.314;2022-08-21T01:45:10;16.20;99.90
14006;DHT22;7078;51.542;7.314;2022-08-21T01:47:37;16.20;99.90
14006;DHT22;7078;51.542;7.314;2022-08-21T01:50:04;16.20;99.90
14006;DHT22;7078;51.542;7.314;2022-08-21T01:52:30;16.20;99.90
14006;DHT22;7078;51.542;7.314;2022-08-21T01:54:56;16.10;99.90
14006;DHT22;7078;51.542;7.314;2022-08-21T01:57:22;16.10;99.90
14006;DHT22;7078;51.542;7.314;2022-08-21T01:59:47;16.10;99.90
14006;DHT22;7078;51.542;7.314;2022-08-21T02:02:13;16.00;99.90
14006;DHT22;7078;51.542;7.314;2022-08-21T02:04:38;16.00;99.90
14006;DHT22;7078;51.542;7.314;2022-08-21T02:07:04;15.90;99.90
14006;DHT22;7078;51.542;7.314;2022-08-21T02:09:30;15.90;99.90
14006;DHT22;7078;51.542;7.314;2022-08-21T02:11:55;15.90;99.90
14006;DHT22;7078;51.542;7.314;2022-08-21T02:14:22;15.90;99.90
14006;DHT22;7078;51.542;7.314;2022-08-21T02:16:47;15.80;99.90
14006;DHT22;7078;51.542;7.314;2022-08-21T02:19:14;15.80;99.90
14006;DHT22;7078;51.542;7.314;2022-08-21T02:21:41;15.80;99.90
14006;DHT22;7078;51.542;7.314;2022-08-21T02:24:07;15.70;99.90
14006;DHT22;7078;51.542;7.314;2022-08-21T02:26:33;15.70;99.90
14006;DHT22;7078;51.542;7.314;2022-08-21T02:29:00;15.70;99.90
14006;DHT22;7078;51.542;7.314;2022-08-21T02:31:25;15.60;99.90
14006;DHT22;7078;51.542;7.314;2022-08-21T02:33:51;15.60;99.90
14006;DHT22;7078;51.542;7.314;2022-08-21T02:36:17;15.60;99.90
14006;DHT22;7078;51.542;7.314;2022-08-21T02:38:43;15.50;99.90
14006;DHT22;7078;51.542;7.314;2022-08-21T02:41:13;15.50;99.90
14006;DHT22;7078;51.542;7.314;2022-08-21T02:43:39;15.50;99.90
14006;DHT22;7078;51.542;7.314;2022-08-21T02:46:05;15.50;99.90
14006;DHT22;7078;51.542;7.314;2022-08-21T02:48:32;15.40;99.90
14006;DHT22;7078;51.542;7.314;2022-08-21T02:51:05;15.40;99.90
14006;DHT22;7078;51.542;7.314;2022-08-21T02:53:32;15.40;99.90
14006;DHT22;7078;51.542;7.314;2022-08-21T02:56:00;15.30;99.90
14006;DHT22;7078;51.542;7.314;2022-08-21T02:58:29;15.30;99.90
14006;DHT22;7078;51.542;7.314;2022-08-21T03:00:57;15.30;99.90
14006;DHT22;7078;51.542;7.314;2022-08-21T03:03:24;15.30;99.90
14006;DHT22;7078;51.542;7.314;2022-08-21T03:05:50;15.20;99.90
14006;DHT22;7078;51.542;7.314;2022-08-21T03:08:16;15.20;99.90
14006;DHT22;7078;51.542;7.314;2022-08-21T03:10:47;15.20;99.90
14006;DHT22;7078;51.542;7.314;2022-08-21T03:13:14;15.20;99.90
14006;DHT22;7078;51.542;7.314;2022-08-21T03:15:40;15.20;99.90
14006;DHT22;7078;51.542;7.314;2022-08-21T03:18:06;15.20;99.90
14006;DHT22;7078;51.542;7.314;2022-08-21T03:20:34;15.10;99.90
14006;DHT22;7078;51.542;7.314;2022-08-21T03:23:00;15.10;99.90
14006;DHT22;7078;51.542;7.314;2022-08-21T03:25:27;15.10;99.90
14006;DHT22;7078;51.542;7.314;2022-08-21T03:27:53;15.10;99.90
14006;DHT22;7078;51.542;7.314;2022-08-21T03:30:21;15.10;99.90
14006;DHT22;7078;51.542;7.314;2022-08-21T03:32:48;15.00;99.90
14006;DHT22;7078;51.542;7.314;2022-08-21T03:35:14;15.00;99.90
14006;DHT22;7078;51.542;7.314;2022-08-21T03:37:39;15.00;99.90
14006;DHT22;7078;51.542;7.314;2022-08-21T03:40:07;14.90;99.90
14006;DHT22;7078;51.542;7.314;2022-08-21T03:42:34;14.90;99.90
14006;DHT22;7078;51.542;7.314;2022-08-21T03:45:00;14.90;99.90
14006;DHT22;7078;51.542;7.314;2022-08-21T03:47:25;14.90;99.90
14006;DHT22;7078;51.542;7.314;2022-08-21T03:49:51;14.90;99.90
14006;DHT22;7078;51.542;7.314;2022-08-21T03:52:17;14.90;99.90
14006;DHT22;7078;51.542;7.314;2022-08-21T03:54:44;14.90;99.90
14006;DHT22;7078;51.542;7.314;2022-08-21T03:57:09;14.90;99.90
14006;DHT22;7078;51.542;7.314;2022-08-21T03:59:36;14.80;99.90
14006;DHT22;7078;51.542;7.314;2022-08-21T04:02:04;14.80;99.90
14006;DHT22;7078;51.542;7.314;2022-08-21T04:04:30;14.80;99.90
14006;DHT22;7078;51.542;7.314;2022-08-21T04:06:57;14.80;99.90
14006;DHT22;7078;51.542;7.314;2022-08-21T04:09:23;14.80;99.90
14006;DHT22;7078;51.542;7.314;2022-08-21T04:11:49;14.80;99.90
14006;DHT22;7078;51.542;7.314;2022-08-21T04:14:15;14.80;99.90
14006;DHT22;7078;51.542;7.314;2022-08-21T04:16:42;14.70;99.90
14006;DHT22;7078;51.542;7.314;2022-08-21T04:19:09;14.70;99.90
14006;DHT22;7078;51.542;7.314;2022-08-21T04:21:36;14.70;99.90
14006;DHT22;7078;51.542;7.314;2022-08-21T04:24:03;14.70;99.90
14006;DHT22;7078;51.542;7.314;2022-08-21T04:26:29;14.60;99.90
14006;DHT22;7078;51.542;7.314;2022-08-21T04:28:56;14.60;99.90
14006;DHT22;7078;51.542;7.314;2022-08-21T04:31:23;14.70;99.90
14006;DHT22;7078;51.542;7.314;2022-08-21T04:33:48;14.70;99.90
14006;DHT22;7078;51.542;7.314;2022-08-21T04:36:14;14.60;99.90
14006;DHT22;7078;51.542;7.314;2022-08-21T04:38:39;14.60;99.90
14006;DHT22;7078;51.542;7.314;2022-08-21T04:41:05;14.60;99.90
14006;DHT22;7078;51.542;7.314;2022-08-21T04:43:32;14.70;99.90
14006;DHT22;7078;51.542;7.314;2022-08-21T04:45:57;14.70;99.90
14006;DHT22;7078;51.542;7.314;2022-08-21T04:48:23;14.70;99.90
14006;DHT22;7078;51.542;7.314;2022-08-21T04:51:07;14.70;99.90
14006;DHT22;7078;51.542;7.314;2022-08-21T04:53:41;14.70;99.90
14006;DHT22;7078;51.542;7.314;2022-08-21T04:56:14;14.70;99.90
14006;DHT22;7078;51.542;7.314;2022-08-21T04:58:41;14.70;99.90
14006;DHT22;7078;51.542;7.314;2022-08-21T05:01:11;14.70;99.90
14006;DHT22;7078;51.542;7.314;2022-08-21T05:03:38;14.90;99.90
14006;DHT22;7078;51.542;7.314;2022-08-21T05:06:07;15.20;99.90
14006;DHT22;7078;51.542;7.314;2022-08-21T05:08:34;15.40;99.90
14006;DHT22;7078;51.542;7.314;2022-08-21T05:11:03;15.50;99.90
14006;DHT22;7078;51.542;7.314;2022-08-21T05:13:29;15.70;99.90
14006;DHT22;7078;51.542;7.314;2022-08-21T05:15:55;15.80;99.90
14006;DHT22;7078;51.542;7.314;2022-08-21T05:18:21;15.90;99.90
14006;DHT22;7078;51.542;7.314;2022-08-21T05:20:46;16.00;99.90
14006;DHT22;7078;51.542;7.314;2022-08-21T05:23:14;16.10;99.90
14006;DHT22;7078;51.542;7.314;2022-08-21T05:25:40;16.20;99.90
14006;DHT22;7078;51.542;7.314;2022-08-21T05:28:07;16.30;99.90
14006;DHT22;7078;51.542;7.314;2022-08-21T05:30:33;16.40;99.90
14006;DHT22;7078;51.542;7.314;2022-08-21T05:33:00;16.50;99.90
14006;DHT22;7078;51.542;7.314;2022-08-21T05:35:27;16.50;99.90
14006;DHT22;7078;51.542;7.314;2022-08-21T05:37:53;16.60;99.90
14006;DHT22;7078;51.542;7.314;2022-08-21T05:40:18;16.70;99.90
14006;DHT22;7078;51.542;7.314;2022-08-21T05:42:44;16.80;99.90
14006;DHT22;7078;51.542;7.314;2022-08-21T05:45:10;16.80;99.90
14006;DHT22;7078;51.542;7.314;2022-08-21T05:47:36;16.90;99.90
14006;DHT22;7078;51.542;7.314;2022-08-21T05:50:03;17.00;99.90
14006;DHT22;7078;51.542;7.314;2022-08-21T05:52:29;17.10;99.90
14006;DHT22;7078;51.542;7.314;2022-08-21T05:54:54;17.50;99.90
14006;DHT22;7078;51.542;7.314;2022-08-21T05:57:20;17.90;99.90
14006;DHT22;7078;51.542;7.314;2022-08-21T05:59:47;18.60;99.90
14006;DHT22;7078;51.542;7.314;2022-08-21T06:02:12;19.00;99.90
14006;DHT22;7078;51.542;7.314;2022-08-21T06:04:39;19.30;99.90
14006;DHT22;7078;51.542;7.314;2022-08-21T06:07:05;19.50;99.90
14006;DHT22;7078;51.542;7.314;2022-08-21T06:09:32;19.70;99.90
14006;DHT22;7078;51.542;7.314;2022-08-21T06:11:58;19.80;99.90
14006;DHT22;7078;51.542;7.314;2022-08-21T06:14:27;19.90;99.90
14006;DHT22;7078;51.542;7.314;2022-08-21T06:16:53;20.00;99.90
14006;DHT22;7078;51.542;7.314;2022-08-21T06:19:18;20.00;99.90
14006;DHT22;7078;51.542;7.314;2022-08-21T06:21:44;20.00;99.90
14006;DHT22;7078;51.542;7.314;2022-08-21T06:24:09;20.00;99.90
14006;DHT22;7078;51.542;7.314;2022-08-21T06:26:35;20.00;99.90
14006;DHT22;7078;51.542;7.314;2022-08-21T06:29:02;20.20;99.90
14006;DHT22;7078;51.542;7.314;2022-08-21T06:31:28;20.40;99.90
14006;DHT22;7078;51.542;7.314;2022-08-21T06:33:54;20.50;99.90
14006;DHT22;7078;51.542;7.314;2022-08-21T06:36:20;20.50;99.90
14006;DHT22;7078;51.542;7.314;2022-08-21T06:38:46;20.50;99.90
14006;DHT22;7078;51.542;7.314;2022-08-21T06:41:12;20.50;99.90
14006;DHT22;7078;51.542;7.314;2022-08-21T06:43:37;20.50;99.90
14006;DHT22;7078;51.542;7.314;2022-08-21T06:46:03;20.40;99.90
14006;DHT22;7078;51.542;7.314;2022-08-21T06:48:28;20.40;99.90
14006;DHT22;7078;51.542;7.314;2022-08-21T06:50:58;20.40;99.90
14006;DHT22;7078;51.542;7.314;2022-08-21T06:53:24;20.20;99.90
14006;DHT22;7078;51.542;7.314;2022-08-21T06:55:49;20.30;99.90
14006;DHT22;7078;51.542;7.314;2022-08-21T06:58:15;20.20;99.90
14006;DHT22;7078;51.542;7.314;2022-08-21T07:00:44;20.30;99.90
14006;DHT22;7078;51.542;7.314;2022-08-21T07:03:21;20.40;99.90
14006;DHT22;7078;51.542;7.314;2022-08-21T07:05:48;20.50;99.90
14006;DHT22;7078;51.542;7.314;2022-08-21T07:08:13;20.60;99.90
14006;DHT22;7078;51.542;7.314;2022-08-21T07:10:39;20.60;99.90
14006;DHT22;7078;51.542;7.314;2022-08-21T07:13:04;20.70;99.90
14006;DHT22;7078;51.542;7.314;2022-08-21T07:15:30;20.90;99.90
14006;DHT22;7078;51.542;7.314;2022-08-21T07:17:57;21.00;99.90
14006;DHT22;7078;51.542;7.314;2022-08-21T07:20:22;21.10;99.90
14006;DHT22;7078;51.542;7.314;2022-08-21T07:22:48;21.10;99.90
14006;DHT22;7078;51.542;7.314;2022-08-21T07:25:13;21.10;99.90
14006;DHT22;7078;51.542;7.314;2022-08-21T07:27:39;21.20;99.90
14006;DHT22;7078;51.542;7.314;2022-08-21T07:30:05;21.20;99.90
14006;DHT22;7078;51.542;7.314;2022-08-21T07:32:31;21.30;99.90
14006;DHT22;7078;51.542;7.314;2022-08-21T07:34:57;21.40;99.90
14006;DHT22;7078;51.542;7.314;2022-08-21T07:37:22;21.40;99.90
14006;DHT22;7078;51.542;7.314;2022-08-21T07:39:48;21.40;99.90
14006;DHT22;7078;51.542;7.314;2022-08-21T07:42:15;21.50;99.90
14006;DHT22;7078;51.542;7.314;2022-08-21T07:44:40;21.60;99.90
14006;DHT22;7078;51.542;7.314;2022-08-21T07:47:06;21.70;99.90
14006;DHT22;7078;51.542;7.314;2022-08-21T07:49:31;21.60;99.90
14006;DHT22;7078;51.542;7.314;2022-08-21T07:51:57;21.80;99.90
14006;DHT22;7078;51.542;7.314;2022-08-21T07:54:23;21.70;99.90
14006;DHT22;7078;51.542;7.314;2022-08-21T07:56:48;21.80;99.90
14006;DHT22;7078;51.542;7.314;2022-08-21T07:59:14;21.90;99.90
14006;DHT22;7078;51.542;7.314;2022-08-21T08:01:39;21.90;99.90
14006;DHT22;7078;51.542;7.314;2022-08-21T08:04:05;22.10;99.90
14006;DHT22;7078;51.542;7.314;2022-08-21T08:06:31;22.10;99.90
14006;DHT22;7078;51.542;7.314;2022-08-21T08:08:57;22.20;99.90
14006;DHT22;7078;51.542;7.314;2022-08-21T08:11:22;22.30;99.90
14006;DHT22;7078;51.542;7.314;2022-08-21T08:13:50;22.30;99.90
14006;DHT22;7078;51.542;7.314;2022-08-21T08:16:16;22.40;99.90
14006;DHT22;7078;51.542;7.314;2022-08-21T08:18:42;22.50;99.90
14006;DHT22;7078;51.542;7.314;2022-08-21T08:21:10;22.40;99.90
14006;DHT22;7078;51.542;7.314;2022-08-21T08:23:36;22.40;99.90
14006;DHT22;7078;51.542;7.314;2022-08-21T08:26:02;22.20;99.50
14006;DHT22;7078;51.542;7.314;2022-08-21T08:28:29;22.20;95.80
14006;DHT22;7078;51.542;7.314;2022-08-21T08:30:54;22.00;92.40
14006;DHT22;7078;51.542;7.314;2022-08-21T08:33:21;21.70;93.60
14006;DHT22;7078;51.542;7.314;2022-08-21T08:35:49;21.70;94.50
14006;DHT22;7078;51.542;7.314;2022-08-21T08:38:16;21.50;96.40
14006;DHT22;7078;51.542;7.314;2022-08-21T08:43:26;21.70;96.90
14006;DHT22;7078;51.542;7.314;2022-08-21T08:45:53;21.70;96.90
14006;DHT22;7078;51.542;7.314;2022-08-21T08:48:36;21.60;96.80
14006;DHT22;7078;51.542;7.314;2022-08-21T08:51:08;21.60;96.60
14006;DHT22;7078;51.542;7.314;2022-08-21T08:53:50;21.50;96.60
14006;DHT22;7078;51.542;7.314;2022-08-21T08:56:20;21.50;97.20
14006;DHT22;7078;51.542;7.314;2022-08-21T08:58:46;21.60;98.00
14006;DHT22;7078;51.542;7.314;2022-08-21T09:01:17;21.60;97.20
14006;DHT22;7078;51.542;7.314;2022-08-21T09:03:44;21.90;99.90
14006;DHT22;7078;51.542;7.314;2022-08-21T09:15:02;22.30;95.40
14006;DHT22;7078;51.542;7.314;2022-08-21T09:28:32;22.40;92.70
14006;DHT22;7078;51.542;7.314;2022-08-21T09:30:58;22.40;93.70
14006;DHT22;7078;51.542;7.314;2022-08-21T09:33:28;22.40;93.70
14006;DHT22;7078;51.542;7.314;2022-08-21T09:35:55;22.60;95.20
14006;DHT22;7078;51.542;7.314;2022-08-21T09:38:29;22.80;93.30
14006;DHT22;7078;51.542;7.314;2022-08-21T09:41:00;22.80;91.90
14006;DHT22;7078;51.542;7.314;2022-08-21T09:43:27;22.70;91.70
14006;DHT22;7078;51.542;7.314;2022-08-21T09:46:11;22.50;92.50
14006;DHT22;7078;51.542;7.314;2022-08-21T09:48:48;22.20;91.20
14006;DHT22;7078;51.542;7.314;2022-08-21T09:51:18;22.10;91.50
14006;DHT22;7078;51.542;7.314;2022-08-21T09:53:49;21.90;92.20
14006;DHT22;7078;51.542;7.314;2022-08-21T09:56:31;21.90;93.00
14006;DHT22;7078;51.542;7.314;2022-08-21T10:01:50;22.30;92.80
14006;DHT22;7078;51.542;7.314;2022-08-21T10:04:22;22.40;91.60
14006;DHT22;7078;51.542;7.314;2022-08-21T10:06:47;22.30;91.20
14006;DHT22;7078;51.542;7.314;2022-08-21T10:09:16;22.40;92.00
14006;DHT22;7078;51.542;7.314;2022-08-21T10:15:02;22.60;91.00
14006;DHT22;7078;51.542;7.314;2022-08-21T10:17:37;22.80;91.30
14006;DHT22;7078;51.542;7.314;2022-08-21T10:25:48;23.20;85.80
14006;DHT22;7078;51.542;7.314;2022-08-21T10:28:38;23.40;87.40
14006;DHT22;7078;51.542;7.314;2022-08-21T10:47:49;23.60;79.30
14006;DHT22;7078;51.542;7.314;2022-08-21T10:50:31;23.60;78.40
14006;DHT22;7078;51.542;7.314;2022-08-21T10:56:24;23.70;76.30
14006;DHT22;7078;51.542;7.314;2022-08-21T10:59:15;23.60;74.70
14006;DHT22;7078;51.542;7.314;2022-08-21T11:04:34;23.80;75.10
14006;DHT22;7078;51.542;7.314;2022-08-21T11:07:07;24.00;78.80
14006;DHT22;7078;51.542;7.314;2022-08-21T11:09:37;24.10;74.70
14006;DHT22;7078;51.542;7.314;2022-08-21T11:12:17;24.20;73.10
14006;DHT22;7078;51.542;7.314;2022-08-21T11:15:07;24.30;72.90
14006;DHT22;7078;51.542;7.314;2022-08-21T11:17:52;24.30;72.70
14006;DHT22;7078;51.542;7.314;2022-08-21T11:23:26;24.40;70.60
14006;DHT22;7078;51.542;7.314;2022-08-21T11:26:00;24.30;70.30
14006;DHT22;7078;51.542;7.314;2022-08-21T11:28:33;24.20;71.30
14006;DHT22;7078;51.542;7.314;2022-08-21T11:31:11;24.20;70.30
14006;DHT22;7078;51.542;7.314;2022-08-21T11:37:11;24.40;70.10
14006;DHT22;7078;51.542;7.314;2022-08-21T11:39:15;24.50;70.70
14006;DHT22;7078;51.542;7.314;2022-08-21T11:41:54;24.70;68.10
14006;DHT22;7078;51.542;7.314;2022-08-21T11:47:33;24.40;68.00
14006;DHT22;7078;51.542;7.314;2022-08-21T11:50:13;24.40;68.90
14006;DHT22;7078;51.542;7.314;2022-08-21T11:52:46;24.40;67.80
14006;DHT22;7078;51.542;7.314;2022-08-21T11:55:19;24.50;68.10
14006;DHT22;7078;51.542;7.314;2022-08-21T12:00:31;24.70;69.80
14006;DHT22;7078;51.542;7.314;2022-08-21T12:03:13;24.70;69.30
14006;DHT22;7078;51.542;7.314;2022-08-21T12:05:51;24.80;68.30
14006;DHT22;7078;51.542;7.314;2022-08-21T12:08:35;24.80;67.00
14006;DHT22;7078;51.542;7.314;2022-08-21T12:13:54;24.80;65.60
14006;DHT22;7078;51.542;7.314;2022-08-21T12:16:30;24.50;67.10
14006;DHT22;7078;51.542;7.314;2022-08-21T12:19:29;24.30;66.60
14006;DHT22;7078;51.542;7.314;2022-08-21T12:26:57;24.50;69.00
14006;DHT22;7078;51.542;7.314;2022-08-21T12:29:31;24.60;67.30
14006;DHT22;7078;51.542;7.314;2022-08-21T12:32:01;24.70;67.70
14006;DHT22;7078;51.542;7.314;2022-08-21T12:39:54;25.00;67.80
14006;DHT22;7078;51.542;7.314;2022-08-21T12:42:23;25.00;67.70
14006;DHT22;7078;51.542;7.314;2022-08-21T12:44:55;25.20;68.30
14006;DHT22;7078;51.542;7.314;2022-08-21T12:47:32;25.30;67.10
14006;DHT22;7078;51.542;7.314;2022-08-21T12:50:32;25.40;66.80
14006;DHT22;7078;51.542;7.314;2022-08-21T12:53:02;25.40;68.40
14006;DHT22;7078;51.542;7.314;2022-08-21T12:55:32;25.30;67.50
14006;DHT22;7078;51.542;7.314;2022-08-21T12:57:58;25.60;67.10
14006;DHT22;7078;51.542;7.314;2022-08-21T13:00:25;25.60;65.20
14006;DHT22;7078;51.542;7.314;2022-08-21T13:02:52;25.70;67.00
14006;DHT22;7078;51.542;7.314;2022-08-21T13:05:35;25.70;64.90
14006;DHT22;7078;51.542;7.314;2022-08-21T13:08:07;25.60;62.90
14006;DHT22;7078;51.542;7.314;2022-08-21T13:10:36;25.50;64.80
14006;DHT22;7078;51.542;7.314;2022-08-21T13:13:15;25.60;63.80
14006;DHT22;7078;51.542;7.314;2022-08-21T13:15:42;25.70;64.70
14006;DHT22;7078;51.542;7.314;2022-08-21T13:18:08;25.90;64.70
14006;DHT22;7078;51.542;7.314;2022-08-21T13:20:44;25.80;62.60
14006;DHT22;7078;51.542;7.314;2022-08-21T13:23:25;25.80;62.30
14006;DHT22;7078;51.542;7.314;2022-08-21T13:25:52;25.90;64.00
14006;DHT22;7078;51.542;7.314;2022-08-21T13:28:17;26.00;63.70
14006;DHT22;7078;51.542;7.314;2022-08-21T13:30:46;26.10;63.40
14006;DHT22;7078;51.542;7.314;2022-08-21T13:33:14;26.10;62.50
14006;DHT22;7078;51.542;7.314;2022-08-21T13:38:33;26.00;59.40
14006;DHT22;7078;51.542;7.314;2022-08-21T13:41:04;26.10;60.10
14006;DHT22;7078;51.542;7.314;2022-08-21T13:43:35;26.20;58.30
14006;DHT22;7078;51.542;7.314;2022-08-21T13:46:02;26.30;58.80
14006;DHT22;7078;51.542;7.314;2022-08-21T13:48:34;26.30;59.70
14006;DHT22;7078;51.542;7.314;2022-08-21T13:51:00;26.40;58.40
14006;DHT22;7078;51.542;7.314;2022-08-21T13:53:32;26.30;58.60
14006;DHT22;7078;51.542;7.314;2022-08-21T13:55:59;26.30;57.60
14006;DHT22;7078;51.542;7.314;2022-08-21T13:58:48;26.20;57.50
14006;DHT22;7078;51.542;7.314;2022-08-21T14:01:36;25.90;56.80
14006;DHT22;7078;51.542;7.314;2022-08-21T14:04:07;25.70;59.10
14006;DHT22;7078;51.542;7.314;2022-08-21T14:06:37;25.70;59.80
14006;DHT22;7078;51.542;7.314;2022-08-21T14:09:31;25.50;59.50
14006;DHT22;7078;51.542;7.314;2022-08-21T14:11:58;25.40;59.40
14006;DHT22;7078;51.542;7.314;2022-08-21T14:14:31;25.20;59.70
14006;DHT22;7078;51.542;7.314;2022-08-21T14:17:04;25.20;61.90
14006;DHT22;7078;51.542;7.314;2022-08-21T14:19:43;25.40;61.20
14006;DHT22;7078;51.542;7.314;2022-08-21T14:25:13;25.40;59.90
14006;DHT22;7078;51.542;7.314;2022-08-21T14:27:44;25.10;60.80
14006;DHT22;7078;51.542;7.314;2022-08-21T14:30:33;24.90;61.30
14006;DHT22;7078;51.542;7.314;2022-08-21T14:33:00;24.90;61.40
14006;DHT22;7078;51.542;7.314;2022-08-21T14:35:26;24.90;63.60
14006;DHT22;7078;51.542;7.314;2022-08-21T14:37:53;24.80;63.60
14006;DHT22;7078;51.542;7.314;2022-08-21T14:40:21;24.80;64.40
14006;DHT22;7078;51.542;7.314;2022-08-21T14:42:47;24.70;65.10
14006;DHT22;7078;51.542;7.314;2022-08-21T14:45:25;24.80;66.90
14006;DHT22;7078;51.542;7.314;2022-08-21T14:47:51;24.70;65.20
14006;DHT22;7078;51.542;7.314;2022-08-21T14:50:17;24.70;65.90
14006;DHT22;7078;51.542;7.314;2022-08-21T14:52:44;24.80;65.20
14006;DHT22;7078;51.542;7.314;2022-08-21T14:55:12;24.80;66.90
14006;DHT22;7078;51.542;7.314;2022-08-21T14:57:40;24.70;66.80
14006;DHT22;7078;51.542;7.314;2022-08-21T15:00:09;24.80;67.10
14006;DHT22;7078;51.542;7.314;2022-08-21T15:02:35;24.90;66.00
14006;DHT22;7078;51.542;7.314;2022-08-21T15:05:01;24.80;65.70
14006;DHT22;7078;51.542;7.314;2022-08-21T15:07:27;24.90;65.00
14006;DHT22;7078;51.542;7.314;2022-08-21T15:09:52;24.90;67.70
14006;DHT22;7078;51.542;7.314;2022-08-21T15:12:18;24.90;65.40
14006;DHT22;7078;51.542;7.314;2022-08-21T15:14:43;24.90;66.50
14006;DHT22;7078;51.542;7.314;2022-08-21T15:17:10;24.90;66.90
14006;DHT22;7078;51.542;7.314;2022-08-21T15:19:36;24.90;65.20
14006;DHT22;7078;51.542;7.314;2022-08-21T15:22:02;25.00;64.30
14006;DHT22;7078;51.542;7.314;2022-08-21T15:24:28;25.10;66.50
14006;DHT22;7078;51.542;7.314;2022-08-21T15:26:54;25.30;65.30
14006;DHT22;7078;51.542;7.314;2022-08-21T15:29:20;25.90;64.90
14006;DHT22;7078;51.542;7.314;2022-08-21T15:31:59;26.50;62.70
14006;DHT22;7078;51.542;7.314;2022-08-21T15:34:27;27.00;62.60
14006;DHT22;7078;51.542;7.314;2022-08-21T15:36:56;27.40;62.10
14006;DHT22;7078;51.542;7.314;2022-08-21T15:39:22;28.70;58.70
14006;DHT22;7078;51.542;7.314;2022-08-21T15:41:48;29.80;56.60
14006;DHT22;7078;51.542;7.314;2022-08-21T15:44:15;30.70;54.50
14006;DHT22;7078;51.542;7.314;2022-08-21T15:46:41;30.80;54.10
14006;DHT22;7078;51.542;7.314;2022-08-21T15:49:07;30.60;53.00
14006;DHT22;7078;51.542;7.314;2022-08-21T15:51:33;30.60;54.00
14006;DHT22;7078;51.542;7.314;2022-08-21T15:53:59;30.00;55.00
14006;DHT22;7078;51.542;7.314;2022-08-21T15:56:31;29.40;54.90
14006;DHT22;7078;51.542;7.314;2022-08-21T15:59:01;28.80;56.80
14006;DHT22;7078;51.542;7.314;2022-08-21T16:01:28;28.20;57.00
14006;DHT22;7078;51.542;7.314;2022-08-21T16:03:54;27.60;57.90
14006;DHT22;7078;51.542;7.314;2022-08-21T16:06:20;27.30;58.50
14006;DHT22;7078;51.542;7.314;2022-08-21T16:08:46;28.10;59.10
14006;DHT22;7078;51.542;7.314;2022-08-21T16:11:13;28.90;57.10
14006;DHT22;7078;51.542;7.314;2022-08-21T16:13:43;29.30;55.30
14006;DHT22;7078;51.542;7.314;2022-08-21T16:16:16;29.20;54.50
14006;DHT22;7078;51.542;7.314;2022-08-21T16:18:42;29.20;55.70
14006;DHT22;7078;51.542;7.314;2022-08-21T16:21:08;28.70;56.10
14006;DHT22;7078;51.542;7.314;2022-08-21T16:23:34;28.30;56.60
14006;DHT22;7078;51.542;7.314;2022-08-21T16:26:02;27.80;58.30
14006;DHT22;7078;51.542;7.314;2022-08-21T16:28:29;27.40;59.30
14006;DHT22;7078;51.542;7.314;2022-08-21T16:30:55;27.10;59.60
14006;DHT22;7078;51.542;7.314;2022-08-21T16:33:42;26.90;59.80
14006;DHT22;7078;51.542;7.314;2022-08-21T16:36:09;26.70;60.10
14006;DHT22;7078;51.542;7.314;2022-08-21T16:38:35;26.50;60.00
14006;DHT22;7078;51.542;7.314;2022-08-21T16:41:04;26.30;62.00
14006;DHT22;7078;51.542;7.314;2022-08-21T16:43:30;26.10;64.80
14006;DHT22;7078;51.542;7.314;2022-08-21T16:45:56;25.90;62.50
14006;DHT22;7078;51.542;7.314;2022-08-21T16:48:23;25.90;63.10
14006;DHT22;7078;51.542;7.314;2022-08-21T16:50:49;25.80;62.70
14006;DHT22;7078;51.542;7.314;2022-08-21T16:53:14;25.70;63.60
14006;DHT22;7078;51.542;7.314;2022-08-21T16:55:40;25.50;63.80
14006;DHT22;7078;51.542;7.314;2022-08-21T16:58:16;25.50;64.40
14006;DHT22;7078;51.542;7.314;2022-08-21T17:00:43;25.40;63.90
14006;DHT22;7078;51.542;7.314;2022-08-21T17:03:13;25.30;64.20
14006;DHT22;7078;51.542;7.314;2022-08-21T17:05:39;25.30;64.90
14006;DHT22;7078;51.542;7.314;2022-08-21T17:08:05;25.20;64.90
14006;DHT22;7078;51.542;7.314;2022-08-21T17:10:33;25.10;64.50
14006;DHT22;7078;51.542;7.314;2022-08-21T17:12:59;25.00;66.60
14006;DHT22;7078;51.542;7.314;2022-08-21T17:15:27;24.90;65.30
14006;DHT22;7078;51.542;7.314;2022-08-21T17:17:54;24.90;65.10
14006;DHT22;7078;51.542;7.314;2022-08-21T17:20:21;24.70;66.90
14006;DHT22;7078;51.542;7.314;2022-08-21T17:22:47;24.60;66.90